Time;durP1;ratioP1;P1;durP2;ratioP2;P2;SDS_P1;SDS_P2;PMS_P1;PMS_P2;Temp;Humidity;BMP_temperature;BMP_pressure;BME280_temperature;BME280_humidity;BME280_pressure;Samples;Min_cycle;Max_cycle;Signal;HPM_P1;HPM_P2
2024/01/26 00:00:31;;;;;;;;;;;;;;;9.24;100.00;102190.66;5264555;28;19923;-71
2024/01/26 00:03:03;;;;;;;;;;;;;;;9.26;100.00;102188.97;5246636;28;19913;-72
2024/01/26 00:05:34;;;;;;;;;;;;;;;9.26;100.00;102184.63;5242806;28;20058;-71
2024/01/26 00:08:05;;;;;;;;;;;;;;;9.29;100.00;102176.00;5242928;28;19964;-71
2024/01/26 00:10:36;;;;;;;;;;;;;;;9.27;100.00;102173.38;5243578;28;20004;-72
2024/01/26 00:13:10;;;;;;;;;;;;;;;9.25;100.00;102172.47;5242334;28;19917;-70
2024/01/26 00:15:45;;;;;;;;;;;;;;;9.27;100.00;102172.47;5243410;28;19940;-71
2024/01/26 00:18:17;;;;;;;;;;;;;;;9.24;100.00;102169.84;5242930;28;19924;-72
2024/01/26 00:20:48;;;;;;;;;;;;;;;9.23;100.00;102173.31;5242917;28;19916;-71
2024/01/26 00:23:19;;;;;;;;;;;;;;;9.25;100.00;102175.06;5243162;28;20012;-71
2024/01/26 00:25:50;;;;;;;;;;;;;;;9.25;100.00;102175.06;5258176;28;20031;-71
2024/01/26 00:28:22;;;;;;;;;;;;;;;9.26;100.00;102179.41;5242980;28;20266;-71
2024/01/26 00:30:53;;;;;;;;;;;;;;;9.24;100.00;102169.84;5243224;28;19975;-71
2024/01/26 00:33:24;;;;;;;;;;;;;;;9.24;100.00;102180.25;5243930;28;19932;-72
2024/01/26 00:35:55;;;;;;;;;;;;;;;9.28;100.00;102174.25;5242077;28;20015;-71
2024/01/26 00:38:27;;;;;;;;;;;;;;;9.26;100.00;102168.16;5241910;28;19921;-71
2024/01/26 00:40:58;;;;;;;;;;;;;;;9.24;100.00;102162.03;5242543;28;19956;-71
2024/01/26 00:43:29;;;;;;;;;;;;;;;9.27;100.00;102162.97;5241364;28;20019;-71
2024/01/26 00:46:00;;;;;;;;;;;;;;;9.33;100.00;102171.72;5241681;28;19917;-72
2024/01/26 00:48:32;;;;;;;;;;;;;;;9.31;100.00;102163.88;5242731;28;19928;-71
2024/01/26 00:51:03;;;;;;;;;;;;;;;9.26;100.00;102160.34;5242502;28;20372;-71
2024/01/26 00:53:35;;;;;;;;;;;;;;;9.27;100.00;102157.78;5242416;28;19924;-71
2024/01/26 00:56:06;;;;;;;;;;;;;;;9.27;100.00;102156.88;5242769;28;19917;-71
2024/01/26 00:58:37;;;;;;;;;;;;;;;9.27;100.00;102156.88;5242527;28;19928;-72
2024/01/26 01:01:08;;;;;;;;;;;;;;;9.30;100.00;102159.53;5242447;28;20369;-71
2024/01/26 01:03:40;;;;;;;;;;;;;;;9.29;100.00;102163.84;5260161;28;19987;-71
2024/01/26 01:06:11;;;;;;;;;;;;;;;9.35;100.00;102155.25;5262409;28;20220;-72
2024/01/26 01:08:43;;;;;;;;;;;;;;;9.37;100.00;102157.88;5262764;28;19979;-72
2024/01/26 01:11:15;;;;;;;;;;;;;;;9.36;100.00;102157.00;5263162;28;19917;-72
2024/01/26 01:13:46;;;;;;;;;;;;;;;9.36;100.00;102157.00;5262738;28;19989;-71
2024/01/26 01:16:18;;;;;;;;;;;;;;;9.36;100.00;102158.75;5261645;28;20292;-72
2024/01/26 01:18:49;;;;;;;;;;;;;;;9.32;100.00;102155.19;5262960;28;19916;-72
2024/01/26 01:21:20;;;;;;;;;;;;;;;9.31;100.00;102154.34;5261603;28;20384;-72
2024/01/26 01:23:52;;;;;;;;;;;;;;;9.32;100.00;102137.00;5261652;28;19952;-71
2024/01/26 01:26:23;;;;;;;;;;;;;;;9.29;100.00;102137.84;5262818;28;19939;-71
2024/01/26 01:28:54;;;;;;;;;;;;;;;9.30;100.00;102128.28;5261129;28;20023;-71
2024/01/26 01:31:26;;;;;;;;;;;;;;;9.31;100.00;102123.09;5262745;28;20004;-72
2024/01/26 01:33:57;;;;;;;;;;;;;;;9.31;100.00;102130.06;5262295;28;20268;-72
2024/01/26 01:36:28;;;;;;;;;;;;;;;9.29;100.00;102137.84;5262582;28;19923;-72
2024/01/26 01:38:59;;;;;;;;;;;;;;;9.26;100.00;102129.13;5262227;28;19987;-72
2024/01/26 01:41:30;;;;;;;;;;;;;;;9.27;100.00;102130.84;5261028;28;20028;-72
2024/01/26 01:44:02;;;;;;;;;;;;;;;9.28;100.00;102130.00;5262586;28;20279;-72
2024/01/26 01:46:33;;;;;;;;;;;;;;;9.28;100.00;102119.59;5262076;28;19970;-72
2024/01/26 01:49:04;;;;;;;;;;;;;;;9.26;100.00;102116.13;5261903;28;19921;-72
2024/01/26 01:51:36;;;;;;;;;;;;;;;9.27;100.00;102110.94;5262365;28;19917;-72
2024/01/26 01:54:08;;;;;;;;;;;;;;;9.27;100.00;102110.03;5262102;28;19923;-72
2024/01/26 01:56:40;;;;;;;;;;;;;;;9.28;100.00;102114.41;5262197;28;20356;-72
2024/01/26 01:59:11;;;;;;;;;;;;;;;9.25;100.00;102112.63;5261070;28;19967;-72
2024/01/26 02:01:42;;;;;;;;;;;;;;;9.31;100.00;102107.50;5260972;28;19917;-72
2024/01/26 02:04:14;;;;;;;;;;;;;;;9.28;100.00;102097.03;5261463;28;20026;-72
2024/01/26 02:06:55;;;;;;;;;;;;;;;9.27;100.00;102097.03;5261922;28;19913;-72
2024/01/26 02:09:27;;;;;;;;;;;;;;;9.29;100.00;102095.34;5262125;28;19917;-72
2024/01/26 02:11:59;;;;;;;;;;;;;;;9.27;100.00;102091.81;5262094;28;19917;-72
2024/01/26 02:14:31;;;;;;;;;;;;;;;9.26;100.00;102082.28;5260871;28;19916;-72
2024/01/26 02:17:02;;;;;;;;;;;;;;;9.26;100.00;102074.47;5262105;28;20325;-72
2024/01/26 02:19:33;;;;;;;;;;;;;;;9.27;100.00;102073.59;5262023;28;19924;-72
2024/01/26 02:22:04;;;;;;;;;;;;;;;9.26;100.00;102079.69;5261975;28;19924;-72
2024/01/26 02:24:36;;;;;;;;;;;;;;;9.27;100.00;102071.00;5261684;28;19993;-71
2024/01/26 02:27:07;;;;;;;;;;;;;;;9.28;100.00;102067.56;5262288;28;19920;-72
2024/01/26 02:29:39;;;;;;;;;;;;;;;9.30;100.00;102065.84;5261983;28;20015;-72
2024/01/26 02:32:10;;;;;;;;;;;;;;;9.33;100.00;102070.22;5261740;28;20350;-72
2024/01/26 02:34:42;;;;;;;;;;;;;;;9.33;100.00;102065.88;5261473;28;20249;-72
2024/01/26 02:37:13;;;;;;;;;;;;;;;9.31;100.00;102059.78;5261863;28;19916;-72
2024/01/26 02:39:45;;;;;;;;;;;;;;;9.33;100.00;102060.69;5261787;28;19912;-73
2024/01/26 02:42:16;;;;;;;;;;;;;;;9.33;100.00;102052.00;5261760;28;19927;-72
2024/01/26 02:44:47;;;;;;;;;;;;;;;9.30;100.00;102042.44;5261792;28;19974;-73
2024/01/26 02:47:18;;;;;;;;;;;;;;;9.33;100.00;102045.06;5261741;28;19917;-73
2024/01/26 02:49:50;;;;;;;;;;;;;;;9.35;100.00;102047.69;5259964;28;19946;-72
2024/01/26 02:52:21;;;;;;;;;;;;;;;9.34;100.00;102039.03;5261663;28;19917;-72
2024/01/26 02:54:52;;;;;;;;;;;;;;;9.37;100.00;102033.84;5261698;28;20016;-72
2024/01/26 02:57:23;;;;;;;;;;;;;;;9.36;100.00;102033.84;5261678;28;19920;-72
2024/01/26 02:59:55;;;;;;;;;;;;;;;9.36;100.00;102026.03;5261668;28;19917;-73
2024/01/26 03:02:26;;;;;;;;;;;;;;;9.33;100.00;102026.00;5260349;28;19923;-72
2024/01/26 03:04:57;;;;;;;;;;;;;;;9.34;100.00;102018.19;5261260;28;20388;-72
2024/01/26 03:07:29;;;;;;;;;;;;;;;9.33;100.00;102010.38;5261870;28;20335;-73
2024/01/26 03:10:00;;;;;;;;;;;;;;;9.34;100.00;102009.50;5261695;28;20375;-71
2024/01/26 03:12:33;;;;;;;;;;;;;;;9.36;100.00;102011.28;5262486;28;20316;-72
2024/01/26 03:15:04;;;;;;;;;;;;;;;9.42;100.00;102018.31;5264038;28;20007;-72
2024/01/26 03:17:36;;;;;;;;;;;;;;;9.45;100.00;102006.19;5265367;28;20007;-71
2024/01/26 03:20:08;;;;;;;;;;;;;;;9.53;100.00;102002.78;5265218;28;19921;-71
2024/01/26 03:22:39;;;;;;;;;;;;;;;9.48;100.00;101985.41;5265032;28;19955;-72
2024/01/26 03:25:10;;;;;;;;;;;;;;;9.54;100.00;101983.72;5265211;28;19916;-71
2024/01/26 03:27:42;;;;;;;;;;;;;;;9.48;100.00;101982.81;5264889;28;19923;-72
2024/01/26 03:30:13;;;;;;;;;;;;;;;9.47;100.00;101982.78;5264834;28;19916;-71
2024/01/26 03:32:44;;;;;;;;;;;;;;;9.49;100.00;101968.91;5264922;28;19916;-72
2024/01/26 03:35:15;;;;;;;;;;;;;;;9.46;100.00;101971.47;5264558;28;19997;-72
2024/01/26 03:37:47;;;;;;;;;;;;;;;9.51;100.00;101978.47;5264936;28;20320;-71
2024/01/26 03:40:18;;;;;;;;;;;;;;;9.50;100.00;101977.63;5263539;28;19917;-71
2024/01/26 03:42:50;;;;;;;;;;;;;;;9.52;100.00;101965.47;5263509;28;19912;-71
2024/01/26 03:45:21;;;;;;;;;;;;;;;9.54;100.00;101981.13;5264812;28;19913;-72
2024/01/26 03:47:53;;;;;;;;;;;;;;;9.54;100.00;101979.38;5264434;28;19942;-71
2024/01/26 03:50:24;;;;;;;;;;;;;;;9.60;100.00;101971.63;5264461;28;19929;-71
2024/01/26 03:52:55;;;;;;;;;;;;;;;9.58;100.00;101964.66;5264450;28;19912;-72
2024/01/26 03:55:26;;;;;;;;;;;;;;;9.60;100.00;101960.34;5264479;28;20015;-72
2024/01/26 03:57:58;;;;;;;;;;;;;;;9.56;100.00;101953.34;5264692;28;20379;-71
2024/01/26 04:00:29;;;;;;;;;;;;;;;9.55;100.00;101955.09;5264318;28;19924;-72
2024/01/26 04:03:00;;;;;;;;;;;;;;;9.60;100.00;101945.59;5264146;28;19920;-71
2024/01/26 04:05:32;;;;;;;;;;;;;;;9.54;100.00;101937.72;5264393;28;19913;-71
2024/01/26 04:08:03;;;;;;;;;;;;;;;9.57;100.00;101947.31;5262753;28;20013;-70
2024/01/26 04:10:35;;;;;;;;;;;;;;;9.57;100.00;101952.50;5264378;28;19916;-72
2024/01/26 04:13:06;;;;;;;;;;;;;;;9.56;100.00;101950.75;5264214;28;20288;-71
2024/01/26 04:15:37;;;;;;;;;;;;;;;9.64;100.00;101939.59;5264210;28;20390;-72
2024/01/26 04:18:09;;;;;;;;;;;;;;;9.57;100.00;101921.28;5263942;28;20287;-72
2024/01/26 04:20:40;;;;;;;;;;;;;;;9.57;100.00;101921.28;5263724;28;20391;-72
2024/01/26 04:23:11;;;;;;;;;;;;;;;9.57;100.00;101910.88;5264076;28;19947;-72
2024/01/26 04:25:43;;;;;;;;;;;;;;;9.57;100.00;101903.91;5263105;28;19912;-72
2024/01/26 04:28:14;;;;;;;;;;;;;;;9.54;100.00;101896.06;5263893;28;20000;-71
2024/01/26 04:30:46;;;;;;;;;;;;;;;9.56;100.00;101890.88;5263525;28;19923;-71
2024/01/26 04:33:17;;;;;;;;;;;;;;;9.57;100.00;101895.25;5263368;28;19928;-71
2024/01/26 04:35:48;;;;;;;;;;;;;;;9.59;100.00;101896.13;5263066;28;19917;-71
2024/01/26 04:38:19;;;;;;;;;;;;;;;9.51;100.00;101888.22;5263689;28;20299;-70
2024/01/26 04:40:50;;;;;;;;;;;;;;;9.50;100.00;101876.09;5263761;28;19942;-71
2024/01/26 04:43:22;;;;;;;;;;;;;;;9.52;100.00;101878.72;5263686;28;20011;-71
2024/01/26 04:45:53;;;;;;;;;;;;;;;9.52;100.00;101876.97;5263799;28;19917;-72
2024/01/26 04:48:24;;;;;;;;;;;;;;;9.52;100.00;101876.13;5263612;28;19959;-71
2024/01/26 04:50:55;;;;;;;;;;;;;;;9.56;100.00;101878.72;5263454;28;20415;-71
2024/01/26 04:53:27;;;;;;;;;;;;;;;9.62;100.00;101886.59;5263738;28;19920;-71
2024/01/26 04:55:58;;;;;;;;;;;;;;;9.49;100.00;101884.75;5263403;28;19917;-71
2024/01/26 04:58:29;;;;;;;;;;;;;;;9.53;100.00;101875.25;5263344;28;19917;-72
2024/01/26 05:01:00;;;;;;;;;;;;;;;9.49;100.00;101872.59;5262971;28;19927;-72
2024/01/26 05:03:32;;;;;;;;;;;;;;;9.41;100.00;101869.06;5263612;28;19967;-71
2024/01/26 05:06:04;;;;;;;;;;;;;;;9.43;100.00;101885.56;5262553;28;19913;-71
2024/01/26 05:08:35;;;;;;;;;;;;;;;9.46;100.00;101877.78;5262897;28;20287;-72
2024/01/26 05:11:06;;;;;;;;;;;;;;;9.54;100.00;101869.19;5263091;28;20403;-72
2024/01/26 05:13:37;;;;;;;;;;;;;;;9.59;100.00;101864.88;5262803;28;20026;-72
2024/01/26 05:16:09;;;;;;;;;;;;;;;9.47;100.00;101857.84;5261990;28;20378;-72
2024/01/26 05:18:40;;;;;;;;;;;;;;;9.49;100.00;101856.13;5262899;28;20343;-72
2024/01/26 05:21:11;;;;;;;;;;;;;;;9.46;100.00;101838.75;5262619;28;20367;-72
2024/01/26 05:23:42;;;;;;;;;;;;;;;9.48;100.00;101846.56;5262899;28;20138;-72
2024/01/26 05:26:13;;;;;;;;;;;;;;;9.44;100.00;101850.88;5262540;28;19913;-72
2024/01/26 05:28:45;;;;;;;;;;;;;;;9.34;100.00;101849.06;5262842;28;19927;-72
2024/01/26 05:31:17;;;;;;;;;;;;;;;9.28;100.00;101835.97;5262729;28;20390;-71
2024/01/26 05:33:48;;;;;;;;;;;;;;;9.20;100.00;101830.69;5262685;28;19913;-72
2024/01/26 05:36:20;;;;;;;;;;;;;;;9.09;100.00;101820.19;5261858;28;19932;-70
2024/01/26 05:38:51;;;;;;;;;;;;;;;9.02;100.00;101808.00;5263030;28;20012;-72
2024/01/26 05:41:22;;;;;;;;;;;;;;;8.97;100.00;101800.97;5261193;28;19924;-70
2024/01/26 05:43:54;;;;;;;;;;;;;;;8.93;100.00;101797.47;5263125;28;19936;-71
2024/01/26 05:46:25;;;;;;;;;;;;;;;8.91;100.00;101800.06;5262145;28;19913;-70
2024/01/26 05:48:57;;;;;;;;;;;;;;;8.91;100.00;101794.00;5261881;28;20009;-70
2024/01/26 05:51:28;;;;;;;;;;;;;;;8.86;100.00;101803.50;5262093;28;19957;-71
2024/01/26 05:53:59;;;;;;;;;;;;;;;8.80;100.00;101801.69;5262453;28;20306;-72
2024/01/26 05:56:30;;;;;;;;;;;;;;;8.81;100.00;101782.63;5262069;28;19916;-71
2024/01/26 05:59:02;;;;;;;;;;;;;;;8.81;100.00;101792.19;5260989;28;20008;-70
2024/01/26 06:01:34;;;;;;;;;;;;;;;8.77;100.00;101788.66;5262200;28;19975;-71
2024/01/26 06:04:05;;;;;;;;;;;;;;;8.79;100.00;101783.47;5262222;28;19913;-71
2024/01/26 06:06:36;;;;;;;;;;;;;;;8.80;100.00;101780.03;5261862;28;20416;-71
2024/01/26 06:09:07;;;;;;;;;;;;;;;8.81;100.00;101782.63;5262640;28;20008;-71
2024/01/26 06:11:42;;;;;;;;;;;;;;;8.80;100.00;101786.09;5261848;28;19917;-71
2024/01/26 06:14:14;;;;;;;;;;;;;;;8.79;100.00;101770.47;5260679;28;20016;-71
2024/01/26 06:16:49;;;;;;;;;;;;;;;8.83;100.00;101787.84;5261773;28;19966;-71
2024/01/26 06:19:20;;;;;;;;;;;;;;;8.82;100.00;101770.50;5260472;28;19963;-71
2024/01/26 06:21:51;;;;;;;;;;;;;;;8.85;100.00;101771.41;5261711;28;19964;-70
2024/01/26 06:24:22;;;;;;;;;;;;;;;8.84;100.00;101754.06;5262031;28;19962;-71
2024/01/26 06:26:54;;;;;;;;;;;;;;;8.90;100.00;101753.25;5262096;28;19960;-71
2024/01/26 06:29:25;;;;;;;;;;;;;;;8.88;100.00;101754.97;5262106;28;19959;-70
2024/01/26 06:31:59;;;;;;;;;;;;;;;8.90;100.00;101766.25;5261700;28;20383;-70
2024/01/26 06:34:31;;;;;;;;;;;;;;;8.94;100.00;101770.63;5261651;28;19944;-70
2024/01/26 06:37:02;;;;;;;;;;;;;;;8.94;100.00;101758.50;5261666;28;20013;-71
2024/01/26 06:39:33;;;;;;;;;;;;;;;8.90;100.00;101761.03;5261986;28;20300;-72
2024/01/26 06:42:05;;;;;;;;;;;;;;;8.92;100.00;101777.56;5261885;28;19912;-71
2024/01/26 06:44:36;;;;;;;;;;;;;;;8.93;100.00;101767.19;5261924;28;20429;-70
2024/01/26 06:47:07;;;;;;;;;;;;;;;8.92;100.00;101774.97;5262338;28;20031;-70
2024/01/26 06:49:38;;;;;;;;;;;;;;;8.98;100.00;101776.72;5266043;28;19927;-70
2024/01/26 06:52:10;;;;;;;;;;;;;;;8.96;100.00;101770.66;5265621;28;19913;-70
2024/01/26 06:54:41;;;;;;;;;;;;;;;9.01;100.00;101756.81;5263899;28;20007;-70
2024/01/26 06:57:12;;;;;;;;;;;;;;;9.01;100.00;101746.41;5264566;28;19923;-70
2024/01/26 06:59:44;;;;;;;;;;;;;;;9.03;100.00;101752.53;5265183;28;19916;-71
2024/01/26 07:02:15;;;;;;;;;;;;;;;9.03;100.00;101744.72;5265447;28;20340;-71
2024/01/26 07:04:47;;;;;;;;;;;;;;;9.04;100.00;101758.59;5264653;28;19924;-71
2024/01/26 07:07:18;;;;;;;;;;;;;;;9.07;100.00;101759.47;5264396;28;19998;-70
2024/01/26 07:09:49;;;;;;;;;;;;;;;9.11;100.00;101753.47;5264592;28;20330;-71
2024/01/26 07:12:20;;;;;;;;;;;;;;;9.11;100.00;101740.47;5265026;28;20026;-71
2024/01/26 07:14:51;;;;;;;;;;;;;;;9.14;100.00;101731.78;5264811;28;19920;-70
2024/01/26 07:17:23;;;;;;;;;;;;;;;9.16;100.00;101739.59;5265062;28;19964;-71
2024/01/26 07:19:54;;;;;;;;;;;;;;;9.16;100.00;101737.00;5264407;28;19917;-70
2024/01/26 07:22:25;;;;;;;;;;;;;;;9.19;100.00;101737.91;5262986;28;19921;-70
2024/01/26 07:24:56;;;;;;;;;;;;;;;9.24;100.00;101728.41;5264068;28;19925;-70
2024/01/26 07:27:28;;;;;;;;;;;;;;;9.23;100.00;101731.00;5264705;28;19963;-70
2024/01/26 07:29:59;;;;;;;;;;;;;;;9.22;100.00;101734.47;5263982;28;19916;-70
2024/01/26 07:32:30;;;;;;;;;;;;;;;9.29;100.00;101731.94;5264022;28;19917;-71
2024/01/26 07:35:02;;;;;;;;;;;;;;;9.27;100.00;101723.25;5263035;28;19969;-71
2024/01/26 07:37:33;;;;;;;;;;;;;;;9.31;100.00;101732.78;5264226;28;19951;-71
2024/01/26 07:40:05;;;;;;;;;;;;;;;9.34;100.00;101716.34;5263164;28;20361;-71
2024/01/26 07:42:36;;;;;;;;;;;;;;;9.39;100.00;101719.84;5264499;28;19924;-70
2024/01/26 07:45:08;;;;;;;;;;;;;;;9.47;100.00;101723.38;5264293;28;19921;-70
2024/01/26 07:47:39;;;;;;;;;;;;;;;9.40;100.00;101720.72;5264460;28;19917;-70
2024/01/26 07:50:10;;;;;;;;;;;;;;;9.41;100.00;101733.75;5256057;28;19924;-71
2024/01/26 07:52:41;;;;;;;;;;;;;;;9.54;100.00;101733.84;5262109;28;19955;-71
2024/01/26 07:55:13;;;;;;;;;;;;;;;9.56;100.00;101759.00;5273196;28;20240;-70
2024/01/26 07:57:44;;;;;;;;;;;;;;;9.53;100.00;101755.50;5241283;28;19921;-71
2024/01/26 08:00:16;;;;;;;;;;;;;;;9.53;100.00;101764.22;5241509;28;19921;-71
2024/01/26 08:02:48;;;;;;;;;;;;;;;9.58;100.00;101774.63;5242119;28;20388;-72
2024/01/26 08:05:19;;;;;;;;;;;;;;;9.54;100.00;101780.69;5241502;28;19917;-72
2024/01/26 08:07:51;;;;;;;;;;;;;;;9.63;100.00;101784.22;5251176;28;19917;-72
2024/01/26 08:10:22;;;;;;;;;;;;;;;9.59;100.00;101779.84;5263504;28;20050;-72
2024/01/26 08:12:54;;;;;;;;;;;;;;;9.63;100.00;101780.75;5261852;28;19917;-72
2024/01/26 08:15:26;;;;;;;;;;;;;;;9.61;100.00;101787.66;5262260;28;19917;-70
2024/01/26 08:17:57;;;;;;;;;;;;;;;9.66;100.00;101765.16;5262490;28;19980;-70
2024/01/26 08:20:28;;;;;;;;;;;;;;;9.72;100.00;101786.00;5261828;28;20014;-71
2024/01/26 08:23:00;;;;;;;;;;;;;;;9.68;100.00;101790.31;5261430;28;19917;-71
2024/01/26 08:25:32;;;;;;;;;;;;;;;9.72;100.00;101791.22;5278078;28;19919;-71
2024/01/26 08:28:03;;;;;;;;;;;;;;;9.70;100.00;101784.28;5262212;28;20019;-71
2024/01/26 08:30:34;;;;;;;;;;;;;;;9.80;100.00;101770.44;5262822;28;20004;-72
2024/01/26 08:33:05;;;;;;;;;;;;;;;9.78;100.00;101775.63;5261293;28;19928;-72
2024/01/26 08:35:37;;;;;;;;;;;;;;;9.81;100.00;101780.88;5262740;28;19927;-72
2024/01/26 08:38:09;;;;;;;;;;;;;;;9.84;100.00;101795.66;5262102;28;19924;-72
2024/01/26 08:40:40;;;;;;;;;;;;;;;9.88;100.00;101784.38;5259651;28;19982;-72
2024/01/26 08:43:11;;;;;;;;;;;;;;;9.85;100.00;101797.38;5260724;28;19916;-69
2024/01/26 08:45:43;;;;;;;;;;;;;;;9.88;100.00;101806.94;5262068;28;19923;-71
2024/01/26 08:48:14;;;;;;;;;;;;;;;9.86;100.00;101817.34;5260934;28;19921;-69
2024/01/26 08:50:45;;;;;;;;;;;;;;;9.88;100.00;101801.75;5262425;28;19968;-69
2024/01/26 08:53:16;;;;;;;;;;;;;;;9.89;100.00;101799.16;5262348;28;19917;-71
2024/01/26 08:55:48;;;;;;;;;;;;;;;9.85;100.00;101777.44;5261564;28;19917;-71
2024/01/26 08:58:19;;;;;;;;;;;;;;;9.89;100.00;101798.28;5261474;28;19920;-70
2024/01/26 09:00:50;;;;;;;;;;;;;;;9.95;100.00;101785.28;5261365;28;19921;-70
2024/01/26 09:03:21;;;;;;;;;;;;;;;9.95;100.00;101801.81;5258088;28;19917;-71
2024/01/26 09:05:53;;;;;;;;;;;;;;;9.91;100.00;101789.59;5241697;28;19928;-72
2024/01/26 09:08:24;;;;;;;;;;;;;;;9.95;100.00;101793.09;5241144;28;19912;-70
2024/01/26 09:10:55;;;;;;;;;;;;;;;9.95;100.00;101798.31;5240124;28;19967;-71
2024/01/26 09:13:26;;;;;;;;;;;;;;;9.93;100.00;101800.03;5256397;28;20281;-70
2024/01/26 09:15:58;;;;;;;;;;;;;;;9.91;100.00;101835.63;5241370;28;19928;-70
2024/01/26 09:18:29;;;;;;;;;;;;;;;9.92;100.00;101846.06;5239895;28;20004;-70
2024/01/26 09:21:00;;;;;;;;;;;;;;;9.88;100.00;101865.09;5256957;28;20012;-70
2024/01/26 09:23:31;;;;;;;;;;;;;;;9.84;100.00;101855.56;5240336;28;19925;-70
2024/01/26 09:26:03;;;;;;;;;;;;;;;9.76;100.00;101891.06;5240449;28;19939;-71
2024/01/26 09:28:34;;;;;;;;;;;;;;;9.77;100.00;101893.69;5241038;28;19971;-71
2024/01/26 09:31:05;;;;;;;;;;;;;;;9.71;100.00;101893.63;5241365;28;20292;-71
2024/01/26 09:33:37;;;;;;;;;;;;;;;9.62;100.00;101890.94;5239267;28;20426;-71
2024/01/26 09:36:08;;;;;;;;;;;;;;;9.58;100.00;101907.38;5241077;28;20364;-72
2024/01/26 09:38:39;;;;;;;;;;;;;;;9.54;100.00;101903.88;5240913;28;19917;-72
2024/01/26 09:41:10;;;;;;;;;;;;;;;9.56;100.00;101896.09;5238511;28;20366;-72
2024/01/26 09:43:41;;;;;;;;;;;;;;;9.51;100.00;101910.81;5252322;28;19948;-69
2024/01/26 09:46:14;;;;;;;;;;;;;;;9.58;100.00;101925.59;5240756;28;19986;-70
2024/01/26 09:48:48;;;;;;;;;;;;;;;9.46;100.00;101953.25;5240984;28;19983;-70
2024/01/26 09:51:21;;;;;;;;;;;;;;;9.31;100.00;101971.31;5239939;28;19935;-71
2024/01/26 09:53:59;;;;;;;;;;;;;;;9.09;100.00;102009.19;5240900;28;19968;-71
2024/01/26 09:56:31;;;;;;;;;;;;;;;8.88;100.00;102028.00;5241688;28;19939;-72
2024/01/26 09:59:03;;;;;;;;;;;;;;;8.72;100.00;102032.09;5240909;28;20233;-71
2024/01/26 10:01:34;;;;;;;;;;;;;;;8.53;100.00;102051.72;5239483;28;19917;-71
2024/01/26 10:04:07;;;;;;;;;;;;;;;8.54;100.00;102048.28;5240768;28;19924;-70
2024/01/26 10:06:39;;;;;;;;;;;;;;;8.56;100.00;102051.78;5240770;28;20384;-70
2024/01/26 10:09:12;;;;;;;;;;;;;;;8.46;100.00;102061.16;5240488;28;19917;-71
2024/01/26 10:11:43;;;;;;;;;;;;;;;8.30;100.00;102062.56;5241281;28;19933;-71
2024/01/26 10:14:21;;;;;;;;;;;;;;;8.34;100.00;102061.81;5241745;28;19924;-71
2024/01/26 10:16:57;;;;;;;;;;;;;;;8.29;100.00;102067.75;5240927;28;20284;-71
2024/01/26 10:19:28;;;;;;;;;;;;;;;8.25;100.00;102077.22;5240538;28;20051;-71
2024/01/26 10:22:00;;;;;;;;;;;;;;;8.12;100.00;102102.09;5241274;28;20015;-72
2024/01/26 10:24:31;;;;;;;;;;;;;;;8.24;100.00;102087.59;5245282;28;19917;-71
2024/01/26 10:27:02;;;;;;;;;;;;;;;8.21;100.00;102097.06;5265276;28;19916;-71
2024/01/26 10:29:36;;;;;;;;;;;;;;;8.15;100.00;102096.09;5264496;28;19935;-70
2024/01/26 10:32:10;;;;;;;;;;;;;;;8.30;100.00;102109.34;5265721;28;19919;-70
2024/01/26 10:34:42;;;;;;;;;;;;;;;8.39;100.00;102114.72;5264849;28;20348;-71
2024/01/26 10:37:15;;;;;;;;;;;;;;;8.44;100.00;102113.97;5265294;28;19916;-70
2024/01/26 10:39:47;;;;;;;;;;;;;;;8.44;100.00;102119.16;5264539;28;19958;-71
2024/01/26 10:42:19;;;;;;;;;;;;;;;8.54;100.00;102124.53;5265326;28;20371;-70
2024/01/26 10:44:51;;;;;;;;;;;;;;;9.04;100.00;102139.19;5265308;28;20411;-71
2024/01/26 10:47:24;;;;;;;;;;;;;;;9.20;100.00;102137.69;5265882;28;20019;-71
2024/01/26 10:49:57;;;;;;;;;;;;;;;9.23;100.00;102139.47;5264450;28;19917;-71
2024/01/26 10:52:30;;;;;;;;;;;;;;;9.44;100.00;102152.78;5265427;28;20316;-71
2024/01/26 10:55:02;;;;;;;;;;;;;;;9.95;100.00;102143.03;5265079;28;19920;-71
2024/01/26 10:57:34;;;;;;;;;;;;;;;9.71;100.00;102153.13;5265355;28;20390;-71
2024/01/26 11:00:06;;;;;;;;;;;;;;;9.50;100.00;102170.22;5264945;28;19917;-72
2024/01/26 11:02:38;;;;;;;;;;;;;;;9.30;100.00;102177.72;5265537;28;19917;-72
2024/01/26 11:05:10;;;;;;;;;;;;;;;9.11;100.00;102193.09;5264469;28;19916;-71
2024/01/26 11:07:41;;;;;;;;;;;;;;;8.87;98.45;102197.84;5265069;28;20356;-72
2024/01/26 11:10:26;;;;;;;;;;;;;;;8.92;100.00;102211.84;5264950;28;19917;-71
2024/01/26 11:13:02;;;;;;;;;;;;;;;8.86;93.92;102211.72;5264574;28;19913;-72
2024/01/26 11:15:36;;;;;;;;;;;;;;;8.83;96.08;102224.69;5265265;28;19923;-71
2024/01/26 11:18:07;;;;;;;;;;;;;;;9.04;98.17;102229.38;5264385;28;19917;-72
2024/01/26 11:20:39;;;;;;;;;;;;;;;9.65;92.11;102245.06;5264729;28;20382;-72
2024/01/26 11:23:11;;;;;;;;;;;;;;;10.50;92.79;102246.19;5264606;28;19912;-72
2024/01/26 11:25:50;;;;;;;;;;;;;;;10.77;85.57;102249.06;5265020;28;20012;-72
2024/01/26 11:28:27;;;;;;;;;;;;;;;10.91;82.15;102261.34;5264134;28;20368;-72
2024/01/26 11:30:59;;;;;;;;;;;;;;;10.69;79.06;102279.41;5265072;28;19917;-73
2024/01/26 11:33:35;;;;;;;;;;;;;;;10.75;73.38;102289.03;5264160;28;19917;-72
2024/01/26 11:36:09;;;;;;;;;;;;;;;10.26;70.65;102306.69;5264454;28;20283;-72
2024/01/26 11:38:41;;;;;;;;;;;;;;;10.36;71.37;102300.75;5264444;28;20267;-72
2024/01/26 11:41:14;;;;;;;;;;;;;;;10.88;69.93;102310.91;5264716;28;19967;-72
2024/01/26 11:43:45;;;;;;;;;;;;;;;10.66;67.31;102320.22;5264202;28;19958;-72
2024/01/26 11:46:16;;;;;;;;;;;;;;;10.80;69.68;102321.25;5264810;28;19921;-73
2024/01/26 11:48:49;;;;;;;;;;;;;;;10.64;67.74;102319.31;5263756;28;19925;-72
2024/01/26 11:51:21;;;;;;;;;;;;;;;10.29;68.35;102333.66;5262547;28;19924;-73
2024/01/26 11:53:52;;;;;;;;;;;;;;;9.82;72.70;102342.53;5263800;28;19917;-72
2024/01/26 11:56:23;;;;;;;;;;;;;;;9.73;72.70;102345.00;5264391;28;19916;-72
2024/01/26 11:58:54;;;;;;;;;;;;;;;9.34;77.26;102335.69;5263495;28;19917;-72
2024/01/26 12:01:26;;;;;;;;;;;;;;;9.56;80.47;102362.06;5263073;28;20422;-73
2024/01/26 12:03:57;;;;;;;;;;;;;;;9.74;77.27;102357.19;5263287;28;19916;-72
2024/01/26 12:06:29;;;;;;;;;;;;;;;9.75;74.04;102368.47;5263056;28;19921;-72
2024/01/26 12:09:00;;;;;;;;;;;;;;;9.66;71.82;102379.63;5261908;28;19975;-72
2024/01/26 12:11:32;;;;;;;;;;;;;;;9.56;73.30;102381.16;5262647;28;19976;-73
2024/01/26 12:14:03;;;;;;;;;;;;;;;10.04;72.14;102397.56;5262896;28;19962;-72
2024/01/26 12:16:34;;;;;;;;;;;;;;;9.93;75.70;102388.72;5262681;28;19924;-73
2024/01/26 12:19:06;;;;;;;;;;;;;;;9.49;72.46;102403.59;5263472;28;20007;-73
2024/01/26 12:21:38;;;;;;;;;;;;;;;9.82;72.27;102397.25;5263717;28;19917;-72
2024/01/26 12:24:12;;;;;;;;;;;;;;;10.26;71.86;102406.59;5263117;28;19917;-72
2024/01/26 12:26:44;;;;;;;;;;;;;;;9.97;66.97;102430.47;5263299;28;19917;-72
2024/01/26 12:29:15;;;;;;;;;;;;;;;9.50;71.07;102427.94;5263311;28;19912;-72
2024/01/26 12:31:46;;;;;;;;;;;;;;;9.96;68.41;102435.66;5263813;28;19966;-72
2024/01/26 12:34:18;;;;;;;;;;;;;;;10.62;64.03;102443.63;5262836;28;19983;-72
2024/01/26 12:36:49;;;;;;;;;;;;;;;10.99;63.00;102436.25;5263243;28;19970;-72
2024/01/26 12:39:20;;;;;;;;;;;;;;;11.05;62.92;102457.22;5261723;28;19916;-72
2024/01/26 12:41:53;;;;;;;;;;;;;;;10.83;60.20;102450.84;5263528;28;19925;-72
2024/01/26 12:44:31;;;;;;;;;;;;;;;11.63;61.75;102449.13;5260953;28;19917;-72
2024/01/26 12:47:03;;;;;;;;;;;;;;;11.58;59.35;102466.50;5262941;28;20020;-71
2024/01/26 12:49:35;;;;;;;;;;;;;;;11.96;60.42;102459.06;5262726;28;19982;-72
2024/01/26 12:52:06;;;;;;;;;;;;;;;12.03;57.20;102465.19;5262694;28;19955;-72
2024/01/26 12:54:37;;;;;;;;;;;;;;;12.08;57.76;102478.31;5262236;28;19925;-71
2024/01/26 12:57:09;;;;;;;;;;;;;;;12.65;55.08;102483.91;5263309;28;19916;-72
2024/01/26 12:59:40;;;;;;;;;;;;;;;12.43;54.48;102485.50;5261994;28;19916;-72